Terminal Aerodrome Forecast
Issued by NWS Denver/Boulder, CO

Home | Current Version | Previous Version | Text Only | Print | Product List | Glossary On
Versions: 1 2 3 4 5 6 7 8 9 10 11 12 13 14 15 16 17 18 19 20 21 22 23 24 25 26 27 28 29 30 31 32 33 34
000
FTUS45 KBOU 220004 AAA
TAFDEN
TAF AMD
KDEN 220004Z 2200/2306 03008KT P6SM FEW100 SCT150 BKN200
     FM220020 25016G24KT P6SM VCSH SCT100 BKN150
     FM220200 22011KT P6SM FEW100 BKN140
     FM221500 VRB05KT P6SM SCT140 SCT200
     FM222000 08007KT P6SM SCT090 BKN130 PROB30 2222/2302 VRB20G30KT
      -TSRA BKN090CB
     FM230200 22011KT P6SM SCT090 BKN130=

USA.gov is the U.S. government's official web portal to all federal, state and local government web resources and services.